sensor_id;sensor_type;location;lat;lon;timestamp;P1;durP1;ratioP1;P2;durP2;ratioP2
8927;SDS011;4499;48.304;11.902;2022-12-24T00:01:32;1.37;;;0.60;;
8927;SDS011;4499;48.304;11.902;2022-12-24T00:04:00;2.67;;;0.90;;
8927;SDS011;4499;48.304;11.902;2022-12-24T00:06:29;1.13;;;0.97;;
8927;SDS011;4499;48.304;11.902;2022-12-24T00:09:00;0.70;;;0.70;;
8927;SDS011;4499;48.304;11.902;2022-12-24T00:11:29;0.93;;;0.80;;
8927;SDS011;4499;48.304;11.902;2022-12-24T00:13:57;1.00;;;0.70;;
8927;SDS011;4499;48.304;11.902;2022-12-24T00:16:26;1.40;;;1.00;;
8927;SDS011;4499;48.304;11.902;2022-12-24T00:18:55;2.07;;;0.70;;
8927;SDS011;4499;48.304;11.902;2022-12-24T00:21:23;3.13;;;1.00;;
8927;SDS011;4499;48.304;11.902;2022-12-24T00:23:51;0.83;;;0.70;;
8927;SDS011;4499;48.304;11.902;2022-12-24T00:26:21;2.00;;;0.70;;
8927;SDS011;4499;48.304;11.902;2022-12-24T00:28:49;1.07;;;0.73;;
8927;SDS011;4499;48.304;11.902;2022-12-24T00:31:17;3.60;;;0.90;;
8927;SDS011;4499;48.304;11.902;2022-12-24T00:33:46;3.23;;;0.80;;
8927;SDS011;4499;48.304;11.902;2022-12-24T00:36:14;1.60;;;0.67;;
8927;SDS011;4499;48.304;11.902;2022-12-24T00:38:44;1.47;;;0.57;;
8927;SDS011;4499;48.304;11.902;2022-12-24T00:41:12;3.13;;;1.13;;
8927;SDS011;4499;48.304;11.902;2022-12-24T00:43:54;3.97;;;0.90;;
8927;SDS011;4499;48.304;11.902;2022-12-24T00:46:23;2.43;;;1.20;;
8927;SDS011;4499;48.304;11.902;2022-12-24T00:48:52;2.50;;;0.97;;
8927;SDS011;4499;48.304;11.902;2022-12-24T00:51:21;1.87;;;0.93;;
8927;SDS011;4499;48.304;11.902;2022-12-24T00:53:50;5.13;;;1.00;;
8927;SDS011;4499;48.304;11.902;2022-12-24T00:56:19;2.43;;;0.90;;
8927;SDS011;4499;48.304;11.902;2022-12-24T00:58:47;2.77;;;0.70;;
8927;SDS011;4499;48.304;11.902;2022-12-24T01:01:17;3.07;;;1.07;;
8927;SDS011;4499;48.304;11.902;2022-12-24T01:03:46;2.17;;;1.07;;
8927;SDS011;4499;48.304;11.902;2022-12-24T01:06:15;1.17;;;0.90;;
8927;SDS011;4499;48.304;11.902;2022-12-24T01:08:48;1.80;;;0.90;;
8927;SDS011;4499;48.304;11.902;2022-12-24T01:11:17;1.37;;;0.90;;
8927;SDS011;4499;48.304;11.902;2022-12-24T01:13:45;0.83;;;0.83;;
8927;SDS011;4499;48.304;11.902;2022-12-24T01:16:14;1.67;;;0.90;;
8927;SDS011;4499;48.304;11.902;2022-12-24T01:18:45;1.20;;;1.10;;
8927;SDS011;4499;48.304;11.902;2022-12-24T01:21:18;4.70;;;1.00;;
8927;SDS011;4499;48.304;11.902;2022-12-24T01:23:46;0.90;;;0.90;;
8927;SDS011;4499;48.304;11.902;2022-12-24T01:26:14;2.27;;;1.10;;
8927;SDS011;4499;48.304;11.902;2022-12-24T01:28:42;2.07;;;1.33;;
8927;SDS011;4499;48.304;11.902;2022-12-24T01:31:10;1.87;;;1.00;;
8927;SDS011;4499;48.304;11.902;2022-12-24T01:33:41;1.97;;;1.07;;
8927;SDS011;4499;48.304;11.902;2022-12-24T01:36:11;1.17;;;1.07;;
8927;SDS011;4499;48.304;11.902;2022-12-24T01:38:40;2.93;;;1.20;;
8927;SDS011;4499;48.304;11.902;2022-12-24T01:41:13;2.30;;;1.20;;
8927;SDS011;4499;48.304;11.902;2022-12-24T01:44:20;1.20;;;1.10;;
8927;SDS011;4499;48.304;11.902;2022-12-24T01:47:02;1.30;;;1.17;;
8927;SDS011;4499;48.304;11.902;2022-12-24T01:49:34;2.70;;;1.13;;
8927;SDS011;4499;48.304;11.902;2022-12-24T01:52:07;5.03;;;1.50;;
8927;SDS011;4499;48.304;11.902;2022-12-24T01:54:39;2.40;;;1.10;;
8927;SDS011;4499;48.304;11.902;2022-12-24T01:57:12;1.77;;;1.20;;
8927;SDS011;4499;48.304;11.902;2022-12-24T01:59:45;1.30;;;1.20;;
8927;SDS011;4499;48.304;11.902;2022-12-24T02:02:18;1.47;;;0.90;;
8927;SDS011;4499;48.304;11.902;2022-12-24T02:04:48;3.30;;;1.23;;
8927;SDS011;4499;48.304;11.902;2022-12-24T02:07:22;1.23;;;1.10;;
8927;SDS011;4499;48.304;11.902;2022-12-24T02:09:51;2.90;;;1.20;;
8927;SDS011;4499;48.304;11.902;2022-12-24T02:12:23;2.00;;;1.23;;
8927;SDS011;4499;48.304;11.902;2022-12-24T02:14:52;2.90;;;1.27;;
8927;SDS011;4499;48.304;11.902;2022-12-24T02:17:23;2.83;;;1.33;;
8927;SDS011;4499;48.304;11.902;2022-12-24T02:23:05;1.43;;;1.20;;
8927;SDS011;4499;48.304;11.902;2022-12-24T02:25:56;2.10;;;1.27;;
8927;SDS011;4499;48.304;11.902;2022-12-24T02:28:41;2.23;;;1.30;;
8927;SDS011;4499;48.304;11.902;2022-12-24T02:31:25;1.40;;;1.00;;
8927;SDS011;4499;48.304;11.902;2022-12-24T02:34:01;2.27;;;1.20;;
8927;SDS011;4499;48.304;11.902;2022-12-24T02:36:35;1.40;;;1.10;;
8927;SDS011;4499;48.304;11.902;2022-12-24T02:39:09;2.43;;;1.13;;
8927;SDS011;4499;48.304;11.902;2022-12-24T02:41:41;2.53;;;1.10;;
8927;SDS011;4499;48.304;11.902;2022-12-24T02:44:34;3.40;;;1.47;;
8927;SDS011;4499;48.304;11.902;2022-12-24T02:47:07;2.17;;;1.20;;
8927;SDS011;4499;48.304;11.902;2022-12-24T02:49:37;2.37;;;1.10;;
8927;SDS011;4499;48.304;11.902;2022-12-24T02:52:05;1.13;;;0.90;;
8927;SDS011;4499;48.304;11.902;2022-12-24T02:54:33;2.23;;;1.30;;
8927;SDS011;4499;48.304;11.902;2022-12-24T02:57:10;1.60;;;1.10;;
8927;SDS011;4499;48.304;11.902;2022-12-24T03:02:41;1.43;;;1.20;;
8927;SDS011;4499;48.304;11.902;2022-12-24T03:05:19;1.50;;;1.23;;
8927;SDS011;4499;48.304;11.902;2022-12-24T03:07:57;3.17;;;1.27;;
8927;SDS011;4499;48.304;11.902;2022-12-24T03:10:32;3.03;;;1.13;;
8927;SDS011;4499;48.304;11.902;2022-12-24T03:13:09;3.43;;;1.30;;
8927;SDS011;4499;48.304;11.902;2022-12-24T03:15:41;1.30;;;1.00;;
8927;SDS011;4499;48.304;11.902;2022-12-24T03:18:11;2.20;;;0.97;;
8927;SDS011;4499;48.304;11.902;2022-12-24T03:20:43;2.43;;;1.37;;
8927;SDS011;4499;48.304;11.902;2022-12-24T03:23:13;1.97;;;1.20;;
8927;SDS011;4499;48.304;11.902;2022-12-24T03:25:42;2.83;;;1.30;;
8927;SDS011;4499;48.304;11.902;2022-12-24T03:28:13;2.13;;;1.10;;
8927;SDS011;4499;48.304;11.902;2022-12-24T03:30:44;2.93;;;1.10;;
8927;SDS011;4499;48.304;11.902;2022-12-24T03:33:15;2.50;;;1.23;;
8927;SDS011;4499;48.304;11.902;2022-12-24T03:35:44;2.10;;;1.10;;
8927;SDS011;4499;48.304;11.902;2022-12-24T03:38:12;4.20;;;1.33;;
8927;SDS011;4499;48.304;11.902;2022-12-24T03:40:40;3.03;;;1.30;;
8927;SDS011;4499;48.304;11.902;2022-12-24T03:43:09;4.13;;;1.20;;
8927;SDS011;4499;48.304;11.902;2022-12-24T03:45:37;2.80;;;1.40;;
8927;SDS011;4499;48.304;11.902;2022-12-24T03:48:05;4.40;;;1.30;;
8927;SDS011;4499;48.304;11.902;2022-12-24T03:50:36;2.13;;;1.13;;
8927;SDS011;4499;48.304;11.902;2022-12-24T03:53:04;1.43;;;1.20;;
8927;SDS011;4499;48.304;11.902;2022-12-24T03:55:33;3.70;;;1.20;;
8927;SDS011;4499;48.304;11.902;2022-12-24T03:58:01;3.77;;;1.17;;
8927;SDS011;4499;48.304;11.902;2022-12-24T04:00:31;4.20;;;1.37;;
8927;SDS011;4499;48.304;11.902;2022-12-24T04:02:59;3.17;;;1.47;;
8927;SDS011;4499;48.304;11.902;2022-12-24T04:05:27;5.47;;;1.43;;
8927;SDS011;4499;48.304;11.902;2022-12-24T04:08:01;5.07;;;1.20;;
8927;SDS011;4499;48.304;11.902;2022-12-24T04:10:29;3.37;;;1.20;;
8927;SDS011;4499;48.304;11.902;2022-12-24T04:12:57;3.27;;;1.30;;
8927;SDS011;4499;48.304;11.902;2022-12-24T04:15:25;4.10;;;1.23;;
8927;SDS011;4499;48.304;11.902;2022-12-24T04:17:54;2.83;;;1.30;;
8927;SDS011;4499;48.304;11.902;2022-12-24T04:20:23;3.13;;;1.30;;
8927;SDS011;4499;48.304;11.902;2022-12-24T04:22:51;1.73;;;1.20;;
8927;SDS011;4499;48.304;11.902;2022-12-24T04:25:21;5.90;;;1.40;;
8927;SDS011;4499;48.304;11.902;2022-12-24T04:27:49;2.43;;;1.13;;
8927;SDS011;4499;48.304;11.902;2022-12-24T04:30:17;3.77;;;1.40;;
8927;SDS011;4499;48.304;11.902;2022-12-24T04:32:46;2.43;;;1.20;;
8927;SDS011;4499;48.304;11.902;2022-12-24T04:35:14;4.23;;;1.30;;
8927;SDS011;4499;48.304;11.902;2022-12-24T04:37:42;5.07;;;1.40;;
8927;SDS011;4499;48.304;11.902;2022-12-24T04:40:10;3.87;;;1.33;;
8927;SDS011;4499;48.304;11.902;2022-12-24T04:42:40;3.37;;;1.40;;
8927;SDS011;4499;48.304;11.902;2022-12-24T04:45:08;3.63;;;1.17;;
8927;SDS011;4499;48.304;11.902;2022-12-24T04:47:37;3.57;;;1.37;;
8927;SDS011;4499;48.304;11.902;2022-12-24T04:50:05;4.43;;;1.50;;
8927;SDS011;4499;48.304;11.902;2022-12-24T04:52:35;4.50;;;1.50;;
8927;SDS011;4499;48.304;11.902;2022-12-24T04:55:03;4.97;;;1.50;;
8927;SDS011;4499;48.304;11.902;2022-12-24T04:57:32;3.97;;;1.50;;
8927;SDS011;4499;48.304;11.902;2022-12-24T05:00:05;3.77;;;1.20;;
8927;SDS011;4499;48.304;11.902;2022-12-24T05:02:34;3.67;;;1.60;;
8927;SDS011;4499;48.304;11.902;2022-12-24T05:05:02;5.07;;;1.57;;
8927;SDS011;4499;48.304;11.902;2022-12-24T05:07:32;2.00;;;1.20;;
8927;SDS011;4499;48.304;11.902;2022-12-24T05:10:01;3.23;;;1.23;;
8927;SDS011;4499;48.304;11.902;2022-12-24T05:12:29;1.83;;;1.20;;
8927;SDS011;4499;48.304;11.902;2022-12-24T05:14:57;1.70;;;1.40;;
8927;SDS011;4499;48.304;11.902;2022-12-24T05:17:26;2.33;;;1.00;;
8927;SDS011;4499;48.304;11.902;2022-12-24T05:19:57;3.33;;;1.30;;
8927;SDS011;4499;48.304;11.902;2022-12-24T05:22:26;3.50;;;1.33;;
8927;SDS011;4499;48.304;11.902;2022-12-24T05:25:11;3.30;;;1.20;;
8927;SDS011;4499;48.304;11.902;2022-12-24T05:27:57;6.20;;;1.70;;
8927;SDS011;4499;48.304;11.902;2022-12-24T05:30:25;3.07;;;1.30;;
8927;SDS011;4499;48.304;11.902;2022-12-24T05:32:54;4.67;;;1.30;;
8927;SDS011;4499;48.304;11.902;2022-12-24T05:35:22;4.87;;;1.50;;
8927;SDS011;4499;48.304;11.902;2022-12-24T05:37:50;4.80;;;1.30;;
8927;SDS011;4499;48.304;11.902;2022-12-24T05:40:18;5.77;;;1.70;;
8927;SDS011;4499;48.304;11.902;2022-12-24T05:42:46;6.70;;;1.70;;
8927;SDS011;4499;48.304;11.902;2022-12-24T05:45:16;3.43;;;1.80;;
8927;SDS011;4499;48.304;11.902;2022-12-24T05:47:44;3.63;;;1.77;;
8927;SDS011;4499;48.304;11.902;2022-12-24T05:50:14;6.90;;;1.60;;
8927;SDS011;4499;48.304;11.902;2022-12-24T05:52:42;5.83;;;1.63;;
8927;SDS011;4499;48.304;11.902;2022-12-24T05:55:10;4.97;;;1.67;;
8927;SDS011;4499;48.304;11.902;2022-12-24T05:57:40;4.37;;;1.63;;
8927;SDS011;4499;48.304;11.902;2022-12-24T06:00:09;3.60;;;1.77;;
8927;SDS011;4499;48.304;11.902;2022-12-24T06:02:38;3.80;;;1.67;;
8927;SDS011;4499;48.304;11.902;2022-12-24T06:05:06;3.80;;;1.40;;
8927;SDS011;4499;48.304;11.902;2022-12-24T06:07:36;4.43;;;1.60;;
8927;SDS011;4499;48.304;11.902;2022-12-24T06:10:05;4.67;;;1.67;;
8927;SDS011;4499;48.304;11.902;2022-12-24T06:12:35;3.87;;;1.27;;
8927;SDS011;4499;48.304;11.902;2022-12-24T06:15:03;1.67;;;0.97;;
8927;SDS011;4499;48.304;11.902;2022-12-24T06:17:32;2.20;;;1.03;;
8927;SDS011;4499;48.304;11.902;2022-12-24T06:20:00;3.27;;;1.17;;
8927;SDS011;4499;48.304;11.902;2022-12-24T06:22:29;2.47;;;1.20;;
8927;SDS011;4499;48.304;11.902;2022-12-24T06:24:58;3.57;;;1.30;;
8927;SDS011;4499;48.304;11.902;2022-12-24T06:27:27;2.30;;;1.07;;
8927;SDS011;4499;48.304;11.902;2022-12-24T06:29:55;2.43;;;1.10;;
8927;SDS011;4499;48.304;11.902;2022-12-24T06:32:23;3.80;;;1.40;;
8927;SDS011;4499;48.304;11.902;2022-12-24T06:34:53;6.20;;;1.60;;
8927;SDS011;4499;48.304;11.902;2022-12-24T06:37:21;3.20;;;1.10;;
8927;SDS011;4499;48.304;11.902;2022-12-24T06:39:49;5.50;;;1.57;;
8927;SDS011;4499;48.304;11.902;2022-12-24T06:42:18;5.27;;;1.10;;
8927;SDS011;4499;48.304;11.902;2022-12-24T06:44:46;6.60;;;1.40;;
8927;SDS011;4499;48.304;11.902;2022-12-24T06:47:15;2.67;;;1.30;;
8927;SDS011;4499;48.304;11.902;2022-12-24T06:49:43;5.10;;;1.60;;
8927;SDS011;4499;48.304;11.902;2022-12-24T06:52:11;4.00;;;1.77;;
8927;SDS011;4499;48.304;11.902;2022-12-24T06:54:39;4.10;;;1.60;;
8927;SDS011;4499;48.304;11.902;2022-12-24T06:57:07;4.10;;;1.70;;
8927;SDS011;4499;48.304;11.902;2022-12-24T06:59:37;4.53;;;1.77;;
8927;SDS011;4499;48.304;11.902;2022-12-24T07:02:05;5.90;;;3.80;;
8927;SDS011;4499;48.304;11.902;2022-12-24T07:04:33;4.80;;;2.27;;
8927;SDS011;4499;48.304;11.902;2022-12-24T07:07:01;3.03;;;1.83;;
8927;SDS011;4499;48.304;11.902;2022-12-24T07:09:30;3.20;;;1.50;;
8927;SDS011;4499;48.304;11.902;2022-12-24T07:11:58;3.60;;;1.47;;
8927;SDS011;4499;48.304;11.902;2022-12-24T07:14:26;4.27;;;1.70;;
8927;SDS011;4499;48.304;11.902;2022-12-24T07:16:56;4.27;;;1.80;;
8927;SDS011;4499;48.304;11.902;2022-12-24T07:19:24;6.40;;;1.70;;
8927;SDS011;4499;48.304;11.902;2022-12-24T07:21:52;7.10;;;1.67;;
8927;SDS011;4499;48.304;11.902;2022-12-24T07:24:21;2.47;;;1.53;;
8927;SDS011;4499;48.304;11.902;2022-12-24T07:26:49;4.03;;;1.53;;
8927;SDS011;4499;48.304;11.902;2022-12-24T07:29:17;3.63;;;1.60;;
8927;SDS011;4499;48.304;11.902;2022-12-24T07:31:45;5.60;;;1.80;;
8927;SDS011;4499;48.304;11.902;2022-12-24T07:34:15;3.77;;;1.77;;
8927;SDS011;4499;48.304;11.902;2022-12-24T07:36:43;7.10;;;1.90;;
8927;SDS011;4499;48.304;11.902;2022-12-24T07:39:11;5.00;;;1.67;;
8927;SDS011;4499;48.304;11.902;2022-12-24T07:41:40;5.10;;;1.70;;
8927;SDS011;4499;48.304;11.902;2022-12-24T07:44:10;3.00;;;1.80;;
8927;SDS011;4499;48.304;11.902;2022-12-24T07:46:39;3.13;;;1.80;;
8927;SDS011;4499;48.304;11.902;2022-12-24T07:49:07;4.50;;;1.80;;
8927;SDS011;4499;48.304;11.902;2022-12-24T07:51:37;4.97;;;2.17;;
8927;SDS011;4499;48.304;11.902;2022-12-24T07:54:05;4.90;;;2.20;;
8927;SDS011;4499;48.304;11.902;2022-12-24T07:56:33;4.77;;;2.00;;
8927;SDS011;4499;48.304;11.902;2022-12-24T07:59:01;7.23;;;2.40;;
8927;SDS011;4499;48.304;11.902;2022-12-24T08:01:30;6.03;;;2.50;;
8927;SDS011;4499;48.304;11.902;2022-12-24T08:03:58;6.37;;;2.57;;
8927;SDS011;4499;48.304;11.902;2022-12-24T08:06:26;5.27;;;2.47;;
8927;SDS011;4499;48.304;11.902;2022-12-24T08:08:56;5.27;;;2.30;;
8927;SDS011;4499;48.304;11.902;2022-12-24T08:11:24;7.30;;;2.33;;
8927;SDS011;4499;48.304;11.902;2022-12-24T08:13:53;8.13;;;2.70;;
8927;SDS011;4499;48.304;11.902;2022-12-24T08:16:21;5.13;;;1.80;;
8927;SDS011;4499;48.304;11.902;2022-12-24T08:18:52;2.47;;;1.37;;
8927;SDS011;4499;48.304;11.902;2022-12-24T08:21:20;2.53;;;1.20;;
8927;SDS011;4499;48.304;11.902;2022-12-24T08:23:48;5.40;;;1.37;;
8927;SDS011;4499;48.304;11.902;2022-12-24T08:26:18;1.47;;;1.20;;
8927;SDS011;4499;48.304;11.902;2022-12-24T08:28:46;2.40;;;1.00;;
8927;SDS011;4499;48.304;11.902;2022-12-24T08:31:14;1.63;;;1.00;;
8927;SDS011;4499;48.304;11.902;2022-12-24T08:33:42;1.93;;;1.17;;
8927;SDS011;4499;48.304;11.902;2022-12-24T08:36:10;2.90;;;1.40;;
8927;SDS011;4499;48.304;11.902;2022-12-24T08:38:39;2.73;;;1.00;;
8927;SDS011;4499;48.304;11.902;2022-12-24T08:41:07;3.13;;;1.30;;
8927;SDS011;4499;48.304;11.902;2022-12-24T08:43:37;2.67;;;1.17;;
8927;SDS011;4499;48.304;11.902;2022-12-24T08:46:05;1.40;;;1.17;;
8927;SDS011;4499;48.304;11.902;2022-12-24T08:48:33;2.03;;;1.00;;
8927;SDS011;4499;48.304;11.902;2022-12-24T08:51:05;2.20;;;1.10;;
8927;SDS011;4499;48.304;11.902;2022-12-24T08:53:34;1.20;;;0.93;;
8927;SDS011;4499;48.304;11.902;2022-12-24T08:56:03;3.63;;;1.10;;
8927;SDS011;4499;48.304;11.902;2022-12-24T08:58:33;3.07;;;1.40;;
8927;SDS011;4499;48.304;11.902;2022-12-24T09:01:08;2.27;;;1.07;;
8927;SDS011;4499;48.304;11.902;2022-12-24T09:03:40;3.57;;;1.80;;
8927;SDS011;4499;48.304;11.902;2022-12-24T09:06:09;2.47;;;1.70;;
8927;SDS011;4499;48.304;11.902;2022-12-24T09:08:37;3.47;;;1.60;;
8927;SDS011;4499;48.304;11.902;2022-12-24T09:11:06;4.37;;;1.40;;
8927;SDS011;4499;48.304;11.902;2022-12-24T09:13:35;2.97;;;1.60;;
8927;SDS011;4499;48.304;11.902;2022-12-24T09:16:06;3.50;;;1.20;;
8927;SDS011;4499;48.304;11.902;2022-12-24T09:18:35;6.37;;;1.50;;
8927;SDS011;4499;48.304;11.902;2022-12-24T09:21:04;3.47;;;1.30;;
8927;SDS011;4499;48.304;11.902;2022-12-24T09:23:34;2.97;;;1.20;;
8927;SDS011;4499;48.304;11.902;2022-12-24T09:26:05;5.33;;;1.57;;
8927;SDS011;4499;48.304;11.902;2022-12-24T09:28:33;3.10;;;1.27;;
8927;SDS011;4499;48.304;11.902;2022-12-24T09:31:02;4.50;;;1.70;;
8927;SDS011;4499;48.304;11.902;2022-12-24T09:33:33;3.90;;;1.43;;
8927;SDS011;4499;48.304;11.902;2022-12-24T09:36:03;3.93;;;1.20;;
8927;SDS011;4499;48.304;11.902;2022-12-24T09:38:35;2.80;;;1.40;;
8927;SDS011;4499;48.304;11.902;2022-12-24T09:41:10;3.60;;;1.77;;
8927;SDS011;4499;48.304;11.902;2022-12-24T09:43:43;4.47;;;1.30;;
8927;SDS011;4499;48.304;11.902;2022-12-24T09:46:16;2.23;;;1.20;;
8927;SDS011;4499;48.304;11.902;2022-12-24T09:48:51;3.20;;;1.50;;
8927;SDS011;4499;48.304;11.902;2022-12-24T09:51:25;3.37;;;1.20;;
8927;SDS011;4499;48.304;11.902;2022-12-24T09:53:59;3.53;;;0.90;;
8927;SDS011;4499;48.304;11.902;2022-12-24T09:56:32;3.23;;;1.13;;
8927;SDS011;4499;48.304;11.902;2022-12-24T09:59:05;2.80;;;1.30;;
8927;SDS011;4499;48.304;11.902;2022-12-24T10:01:37;3.23;;;1.30;;
8927;SDS011;4499;48.304;11.902;2022-12-24T10:04:08;2.90;;;1.30;;
8927;SDS011;4499;48.304;11.902;2022-12-24T10:06:41;2.83;;;1.30;;
8927;SDS011;4499;48.304;11.902;2022-12-24T10:09:19;4.60;;;1.30;;
8927;SDS011;4499;48.304;11.902;2022-12-24T10:11:53;3.30;;;1.27;;
8927;SDS011;4499;48.304;11.902;2022-12-24T10:14:33;2.77;;;1.00;;
8927;SDS011;4499;48.304;11.902;2022-12-24T10:17:24;2.67;;;1.00;;
8927;SDS011;4499;48.304;11.902;2022-12-24T10:20:07;4.03;;;1.33;;
8927;SDS011;4499;48.304;11.902;2022-12-24T10:22:52;2.60;;;1.00;;
8927;SDS011;4499;48.304;11.902;2022-12-24T10:25:29;3.03;;;1.30;;
8927;SDS011;4499;48.304;11.902;2022-12-24T10:28:06;2.33;;;1.10;;
8927;SDS011;4499;48.304;11.902;2022-12-24T10:30:41;3.70;;;1.30;;
8927;SDS011;4499;48.304;11.902;2022-12-24T10:33:13;4.37;;;1.63;;
8927;SDS011;4499;48.304;11.902;2022-12-24T10:35:48;2.77;;;1.10;;
8927;SDS011;4499;48.304;11.902;2022-12-24T10:38:21;2.30;;;0.87;;
8927;SDS011;4499;48.304;11.902;2022-12-24T10:40:49;2.40;;;1.13;;
8927;SDS011;4499;48.304;11.902;2022-12-24T10:43:20;2.90;;;1.10;;
8927;SDS011;4499;48.304;11.902;2022-12-24T10:45:50;3.13;;;1.30;;
8927;SDS011;4499;48.304;11.902;2022-12-24T10:48:23;3.23;;;1.13;;
8927;SDS011;4499;48.304;11.902;2022-12-24T10:50:58;2.30;;;1.30;;
8927;SDS011;4499;48.304;11.902;2022-12-24T10:53:37;3.70;;;1.50;;
8927;SDS011;4499;48.304;11.902;2022-12-24T10:56:10;1.77;;;1.00;;
8927;SDS011;4499;48.304;11.902;2022-12-24T10:58:42;4.60;;;1.50;;
8927;SDS011;4499;48.304;11.902;2022-12-24T11:01:14;3.03;;;1.40;;
8927;SDS011;4499;48.304;11.902;2022-12-24T11:03:42;3.53;;;1.33;;
8927;SDS011;4499;48.304;11.902;2022-12-24T11:06:12;2.53;;;1.40;;
8927;SDS011;4499;48.304;11.902;2022-12-24T11:08:46;4.33;;;1.57;;
8927;SDS011;4499;48.304;11.902;2022-12-24T11:11:16;2.30;;;1.27;;
8927;SDS011;4499;48.304;11.902;2022-12-24T11:13:51;4.10;;;2.20;;
8927;SDS011;4499;48.304;11.902;2022-12-24T11:16:22;3.00;;;1.30;;
8927;SDS011;4499;48.304;11.902;2022-12-24T11:18:54;1.77;;;1.10;;
8927;SDS011;4499;48.304;11.902;2022-12-24T11:21:28;2.20;;;1.20;;
8927;SDS011;4499;48.304;11.902;2022-12-24T11:23:59;4.47;;;1.60;;
8927;SDS011;4499;48.304;11.902;2022-12-24T11:26:33;3.60;;;1.50;;
8927;SDS011;4499;48.304;11.902;2022-12-24T11:29:03;2.27;;;1.43;;
8927;SDS011;4499;48.304;11.902;2022-12-24T11:31:33;2.27;;;1.20;;
8927;SDS011;4499;48.304;11.902;2022-12-24T11:34:16;2.63;;;1.47;;
8927;SDS011;4499;48.304;11.902;2022-12-24T11:36:50;2.40;;;1.27;;
8927;SDS011;4499;48.304;11.902;2022-12-24T11:39:21;3.53;;;1.53;;
8927;SDS011;4499;48.304;11.902;2022-12-24T11:41:52;2.53;;;1.30;;
8927;SDS011;4499;48.304;11.902;2022-12-24T11:44:22;2.80;;;1.40;;
8927;SDS011;4499;48.304;11.902;2022-12-24T11:46:53;6.07;;;1.60;;
8927;SDS011;4499;48.304;11.902;2022-12-24T11:49:23;4.63;;;1.50;;
8927;SDS011;4499;48.304;11.902;2022-12-24T11:52:08;2.73;;;1.10;;
8927;SDS011;4499;48.304;11.902;2022-12-24T11:54:47;4.13;;;1.40;;
8927;SDS011;4499;48.304;11.902;2022-12-24T11:57:23;2.57;;;1.40;;
8927;SDS011;4499;48.304;11.902;2022-12-24T11:59:55;4.67;;;1.23;;
8927;SDS011;4499;48.304;11.902;2022-12-24T12:02:27;2.93;;;1.20;;
8927;SDS011;4499;48.304;11.902;2022-12-24T12:04:59;3.13;;;1.30;;
8927;SDS011;4499;48.304;11.902;2022-12-24T12:07:33;5.17;;;1.30;;
8927;SDS011;4499;48.304;11.902;2022-12-24T12:10:03;4.57;;;1.40;;
8927;SDS011;4499;48.304;11.902;2022-12-24T12:12:39;3.70;;;1.20;;
8927;SDS011;4499;48.304;11.902;2022-12-24T12:15:10;5.43;;;1.67;;
8927;SDS011;4499;48.304;11.902;2022-12-24T12:17:42;3.10;;;1.20;;
8927;SDS011;4499;48.304;11.902;2022-12-24T12:20:20;3.63;;;1.30;;
8927;SDS011;4499;48.304;11.902;2022-12-24T12:22:54;2.90;;;1.30;;
8927;SDS011;4499;48.304;11.902;2022-12-24T12:25:27;4.57;;;1.10;;
8927;SDS011;4499;48.304;11.902;2022-12-24T12:28:01;4.07;;;1.37;;
8927;SDS011;4499;48.304;11.902;2022-12-24T12:30:30;5.10;;;1.30;;
8927;SDS011;4499;48.304;11.902;2022-12-24T12:33:01;3.60;;;1.47;;
8927;SDS011;4499;48.304;11.902;2022-12-24T12:35:38;5.67;;;1.60;;
8927;SDS011;4499;48.304;11.902;2022-12-24T12:38:10;4.33;;;1.47;;
8927;SDS011;4499;48.304;11.902;2022-12-24T12:40:46;5.10;;;1.93;;
8927;SDS011;4499;48.304;11.902;2022-12-24T12:43:31;5.37;;;1.57;;
8927;SDS011;4499;48.304;11.902;2022-12-24T12:46:10;3.43;;;1.43;;
8927;SDS011;4499;48.304;11.902;2022-12-24T12:49:00;4.83;;;1.50;;
8927;SDS011;4499;48.304;11.902;2022-12-24T12:51:40;4.50;;;1.47;;
8927;SDS011;4499;48.304;11.902;2022-12-24T12:54:22;5.67;;;1.50;;
8927;SDS011;4499;48.304;11.902;2022-12-24T12:57:07;3.63;;;1.60;;
8927;SDS011;4499;48.304;11.902;2022-12-24T12:59:41;4.67;;;1.53;;
8927;SDS011;4499;48.304;11.902;2022-12-24T13:02:18;3.60;;;1.17;;
8927;SDS011;4499;48.304;11.902;2022-12-24T13:05:18;5.30;;;1.50;;
8927;SDS011;4499;48.304;11.902;2022-12-24T13:08:18;6.43;;;1.70;;
8927;SDS011;4499;48.304;11.902;2022-12-24T13:14:07;4.33;;;1.50;;
8927;SDS011;4499;48.304;11.902;2022-12-24T13:16:56;3.30;;;1.37;;
8927;SDS011;4499;48.304;11.902;2022-12-24T13:20:03;4.77;;;1.30;;
8927;SDS011;4499;48.304;11.902;2022-12-24T13:22:47;3.50;;;1.50;;
8927;SDS011;4499;48.304;11.902;2022-12-24T13:25:24;3.80;;;1.37;;
8927;SDS011;4499;48.304;11.902;2022-12-24T13:27:58;6.53;;;1.63;;
8927;SDS011;4499;48.304;11.902;2022-12-24T13:30:42;4.87;;;1.50;;
8927;SDS011;4499;48.304;11.902;2022-12-24T13:33:13;4.00;;;1.20;;
8927;SDS011;4499;48.304;11.902;2022-12-24T13:36:15;3.00;;;1.17;;
8927;SDS011;4499;48.304;11.902;2022-12-24T13:38:45;4.30;;;1.57;;
8927;SDS011;4499;48.304;11.902;2022-12-24T13:44:21;4.20;;;1.40;;
8927;SDS011;4499;48.304;11.902;2022-12-24T13:47:02;3.23;;;1.20;;
8927;SDS011;4499;48.304;11.902;2022-12-24T13:49:57;4.03;;;1.40;;
8927;SDS011;4499;48.304;11.902;2022-12-24T13:52:49;9.97;;;4.83;;
8927;SDS011;4499;48.304;11.902;2022-12-24T13:55:19;20.67;;;10.10;;
8927;SDS011;4499;48.304;11.902;2022-12-24T13:57:55;5.77;;;3.40;;
8927;SDS011;4499;48.304;11.902;2022-12-24T14:03:24;3.43;;;1.40;;
8927;SDS011;4499;48.304;11.902;2022-12-24T14:05:56;3.90;;;1.70;;
8927;SDS011;4499;48.304;11.902;2022-12-24T14:08:32;5.60;;;1.60;;
8927;SDS011;4499;48.304;11.902;2022-12-24T14:11:05;4.50;;;1.37;;
8927;SDS011;4499;48.304;11.902;2022-12-24T14:13:51;2.67;;;1.10;;
8927;SDS011;4499;48.304;11.902;2022-12-24T14:16:42;4.07;;;1.47;;
8927;SDS011;4499;48.304;11.902;2022-12-24T14:19:17;3.43;;;1.40;;
8927;SDS011;4499;48.304;11.902;2022-12-24T14:21:51;3.20;;;1.20;;
8927;SDS011;4499;48.304;11.902;2022-12-24T14:24:24;5.27;;;1.40;;
8927;SDS011;4499;48.304;11.902;2022-12-24T14:26:56;3.57;;;1.50;;
8927;SDS011;4499;48.304;11.902;2022-12-24T14:29:27;6.20;;;2.13;;
8927;SDS011;4499;48.304;11.902;2022-12-24T14:32:00;6.73;;;2.53;;
8927;SDS011;4499;48.304;11.902;2022-12-24T14:34:29;5.10;;;2.60;;
8927;SDS011;4499;48.304;11.902;2022-12-24T14:36:58;7.23;;;2.60;;
8927;SDS011;4499;48.304;11.902;2022-12-24T14:39:31;5.80;;;2.30;;
8927;SDS011;4499;48.304;11.902;2022-12-24T14:42:05;4.60;;;2.10;;
8927;SDS011;4499;48.304;11.902;2022-12-24T14:44:45;4.07;;;1.57;;
8927;SDS011;4499;48.304;11.902;2022-12-24T14:47:27;5.13;;;1.97;;
8927;SDS011;4499;48.304;11.902;2022-12-24T14:50:03;2.93;;;1.50;;
8927;SDS011;4499;48.304;11.902;2022-12-24T14:52:52;3.77;;;1.40;;
8927;SDS011;4499;48.304;11.902;2022-12-24T14:55:37;4.17;;;1.80;;
8927;SDS011;4499;48.304;11.902;2022-12-24T14:58:15;4.37;;;1.67;;
8927;SDS011;4499;48.304;11.902;2022-12-24T15:00:47;4.00;;;1.50;;
8927;SDS011;4499;48.304;11.902;2022-12-24T15:03:18;4.57;;;1.70;;
8927;SDS011;4499;48.304;11.902;2022-12-24T15:05:49;2.07;;;1.20;;
8927;SDS011;4499;48.304;11.902;2022-12-24T15:08:22;3.27;;;1.43;;
8927;SDS011;4499;48.304;11.902;2022-12-24T15:10:56;3.43;;;1.20;;
8927;SDS011;4499;48.304;11.902;2022-12-24T15:13:29;4.37;;;1.70;;
8927;SDS011;4499;48.304;11.902;2022-12-24T15:16:02;2.37;;;1.27;;
8927;SDS011;4499;48.304;11.902;2022-12-24T15:18:34;5.03;;;1.60;;
8927;SDS011;4499;48.304;11.902;2022-12-24T15:21:06;6.23;;;2.07;;
8927;SDS011;4499;48.304;11.902;2022-12-24T15:23:44;4.47;;;2.70;;
8927;SDS011;4499;48.304;11.902;2022-12-24T15:26:17;7.37;;;3.90;;
8927;SDS011;4499;48.304;11.902;2022-12-24T15:28:49;4.97;;;3.80;;
8927;SDS011;4499;48.304;11.902;2022-12-24T15:31:27;4.30;;;2.00;;
8927;SDS011;4499;48.304;11.902;2022-12-24T15:33:59;4.20;;;1.90;;
8927;SDS011;4499;48.304;11.902;2022-12-24T15:36:28;5.40;;;1.50;;
8927;SDS011;4499;48.304;11.902;2022-12-24T15:38:59;2.17;;;1.40;;
8927;SDS011;4499;48.304;11.902;2022-12-24T15:41:31;2.97;;;1.70;;
8927;SDS011;4499;48.304;11.902;2022-12-24T15:44:25;4.57;;;2.07;;
8927;SDS011;4499;48.304;11.902;2022-12-24T15:46:56;5.13;;;2.57;;